sensor_id;sensor_type;location;lat;lon;timestamp;temperature;humidity
39881;DHT22;25554;44.954;10.068;2022-07-05T00:00:49;20.60;99.90
39881;DHT22;25554;44.954;10.068;2022-07-05T00:10:36;20.60;99.90
39881;DHT22;25554;44.954;10.068;2022-07-05T00:13:03;20.40;99.90
39881;DHT22;25554;44.954;10.068;2022-07-05T00:20:23;20.40;99.90
39881;DHT22;25554;44.954;10.068;2022-07-05T00:22:50;20.40;99.90
39881;DHT22;25554;44.954;10.068;2022-07-05T00:27:42;20.40;99.90
39881;DHT22;25554;44.954;10.068;2022-07-05T00:30:10;20.30;99.90
39881;DHT22;25554;44.954;10.068;2022-07-05T00:35:04;20.40;99.90
39881;DHT22;25554;44.954;10.068;2022-07-05T00:39:57;20.30;99.90
39881;DHT22;25554;44.954;10.068;2022-07-05T00:44:49;20.30;99.90
39881;DHT22;25554;44.954;10.068;2022-07-05T00:52:11;20.30;99.90
39881;DHT22;25554;44.954;10.068;2022-07-05T00:54:39;20.30;99.90
39881;DHT22;25554;44.954;10.068;2022-07-05T00:57:06;20.30;99.90
39881;DHT22;25554;44.954;10.068;2022-07-05T01:01:59;20.90;99.90
39881;DHT22;25554;44.954;10.068;2022-07-05T01:09:21;20.40;99.90
39881;DHT22;25554;44.954;10.068;2022-07-05T01:11:49;20.40;99.90
39881;DHT22;25554;44.954;10.068;2022-07-05T01:14:18;20.40;99.90
39881;DHT22;25554;44.954;10.068;2022-07-05T01:19:12;20.30;99.90
39881;DHT22;25554;44.954;10.068;2022-07-05T01:21:41;20.30;99.90
39881;DHT22;25554;44.954;10.068;2022-07-05T01:24:12;20.30;99.90
39881;DHT22;25554;44.954;10.068;2022-07-05T01:26:40;20.30;99.90
39881;DHT22;25554;44.954;10.068;2022-07-05T01:29:08;20.30;99.90
39881;DHT22;25554;44.954;10.068;2022-07-05T01:31:38;20.30;99.90
39881;DHT22;25554;44.954;10.068;2022-07-05T01:36:33;20.20;99.90
39881;DHT22;25554;44.954;10.068;2022-07-05T01:39:01;20.30;99.90
39881;DHT22;25554;44.954;10.068;2022-07-05T01:46:22;20.30;99.90
39881;DHT22;25554;44.954;10.068;2022-07-05T01:48:55;20.20;99.90
39881;DHT22;25554;44.954;10.068;2022-07-05T01:51:29;20.20;99.90
39881;DHT22;25554;44.954;10.068;2022-07-05T01:56:22;20.10;99.90
39881;DHT22;25554;44.954;10.068;2022-07-05T02:01:15;20.00;99.90
39881;DHT22;25554;44.954;10.068;2022-07-05T02:40:35;20.10;99.90
39881;DHT22;25554;44.954;10.068;2022-07-05T02:43:02;20.10;99.90
39881;DHT22;25554;44.954;10.068;2022-07-05T03:20:04;20.20;99.90
39881;DHT22;25554;44.954;10.068;2022-07-05T03:54:26;20.10;99.90
39881;DHT22;25554;44.954;10.068;2022-07-05T04:36:21;19.80;99.90
39881;DHT22;25554;44.954;10.068;2022-07-05T04:53:37;21.00;99.90
39881;DHT22;25554;44.954;10.068;2022-07-05T04:56:04;20.20;99.90
39881;DHT22;25554;44.954;10.068;2022-07-05T05:05:52;20.60;99.90
39881;DHT22;25554;44.954;10.068;2022-07-05T05:10:45;20.80;99.90
39881;DHT22;25554;44.954;10.068;2022-07-05T05:18:04;21.10;99.90
39881;DHT22;25554;44.954;10.068;2022-07-05T05:22:57;21.40;99.90
39881;DHT22;25554;44.954;10.068;2022-07-05T05:30:18;21.70;99.90
39881;DHT22;25554;44.954;10.068;2022-07-05T05:37:48;22.30;99.90
39881;DHT22;25554;44.954;10.068;2022-07-05T05:42:41;22.40;99.90
39881;DHT22;25554;44.954;10.068;2022-07-05T05:47:43;22.50;99.90
39881;DHT22;25554;44.954;10.068;2022-07-05T06:04:51;22.70;99.90
39881;DHT22;25554;44.954;10.068;2022-07-05T06:09:44;22.90;99.90
39881;DHT22;25554;44.954;10.068;2022-07-05T06:17:03;23.30;99.90
39881;DHT22;25554;44.954;10.068;2022-07-05T06:21:55;23.40;99.90
39881;DHT22;25554;44.954;10.068;2022-07-05T06:26:48;23.60;99.90
39881;DHT22;25554;44.954;10.068;2022-07-05T06:31:40;23.70;99.90
39881;DHT22;25554;44.954;10.068;2022-07-05T06:38:59;24.00;99.90
39881;DHT22;25554;44.954;10.068;2022-07-05T06:43:52;24.10;99.90
39881;DHT22;25554;44.954;10.068;2022-07-05T07:03:29;24.80;99.90
39881;DHT22;25554;44.954;10.068;2022-07-05T08:21:04;29.00;99.90
39881;DHT22;25554;44.954;10.068;2022-07-05T08:29:12;29.00;99.90
39881;DHT22;25554;44.954;10.068;2022-07-05T08:31:43;29.00;99.90
39881;DHT22;25554;44.954;10.068;2022-07-05T08:41:34;28.70;99.90
39881;DHT22;25554;44.954;10.068;2022-07-05T08:44:02;28.80;99.90
39881;DHT22;25554;44.954;10.068;2022-07-05T08:46:33;28.80;99.90
39881;DHT22;25554;44.954;10.068;2022-07-05T08:49:02;28.90;99.90
39881;DHT22;25554;44.954;10.068;2022-07-05T08:51:33;28.70;99.90
39881;DHT22;25554;44.954;10.068;2022-07-05T08:54:00;28.90;99.90
39881;DHT22;25554;44.954;10.068;2022-07-05T08:56:28;28.80;99.90
39881;DHT22;25554;44.954;10.068;2022-07-05T09:01:22;28.70;99.90
39881;DHT22;25554;44.954;10.068;2022-07-05T09:03:51;28.70;99.90
39881;DHT22;25554;44.954;10.068;2022-07-05T09:06:23;28.70;99.90
39881;DHT22;25554;44.954;10.068;2022-07-05T09:08:51;28.80;99.90
39881;DHT22;25554;44.954;10.068;2022-07-05T09:11:24;28.80;99.90
39881;DHT22;25554;44.954;10.068;2022-07-05T09:21:18;28.70;99.90
39881;DHT22;25554;44.954;10.068;2022-07-05T09:23:56;28.80;99.90
39881;DHT22;25554;44.954;10.068;2022-07-05T09:26:46;28.70;99.90
39881;DHT22;25554;44.954;10.068;2022-07-05T09:29:20;28.70;99.90
39881;DHT22;25554;44.954;10.068;2022-07-05T09:31:49;29.00;99.90
39881;DHT22;25554;44.954;10.068;2022-07-05T09:34:17;29.00;99.90
39881;DHT22;25554;44.954;10.068;2022-07-05T09:36:53;29.30;99.90
39881;DHT22;25554;44.954;10.068;2022-07-05T09:44:47;29.70;99.90
39881;DHT22;25554;44.954;10.068;2022-07-05T09:47:19;29.70;99.90
39881;DHT22;25554;44.954;10.068;2022-07-05T09:49:53;29.50;99.90
39881;DHT22;25554;44.954;10.068;2022-07-05T09:52:29;29.70;99.90
39881;DHT22;25554;44.954;10.068;2022-07-05T09:55:03;30.00;99.90
39881;DHT22;25554;44.954;10.068;2022-07-05T10:00:04;30.10;99.90
39881;DHT22;25554;44.954;10.068;2022-07-05T10:02:41;30.20;99.90
39881;DHT22;25554;44.954;10.068;2022-07-05T10:05:22;29.90;99.80
39881;DHT22;25554;44.954;10.068;2022-07-05T10:07:54;30.00;99.60
39881;DHT22;25554;44.954;10.068;2022-07-05T10:10:26;30.30;99.10
39881;DHT22;25554;44.954;10.068;2022-07-05T10:12:57;30.50;99.10
39881;DHT22;25554;44.954;10.068;2022-07-05T10:15:34;30.70;99.40
39881;DHT22;25554;44.954;10.068;2022-07-05T10:18:14;30.70;99.20
39881;DHT22;25554;44.954;10.068;2022-07-05T10:20:45;30.70;99.00
39881;DHT22;25554;44.954;10.068;2022-07-05T10:25:44;30.90;98.80
39881;DHT22;25554;44.954;10.068;2022-07-05T10:28:23;30.70;98.20
39881;DHT22;25554;44.954;10.068;2022-07-05T10:33:18;31.00;98.90
39881;DHT22;25554;44.954;10.068;2022-07-05T10:40:42;31.40;98.00
39881;DHT22;25554;44.954;10.068;2022-07-05T10:43:10;31.50;97.40
39881;DHT22;25554;44.954;10.068;2022-07-05T10:45:40;31.40;97.60
39881;DHT22;25554;44.954;10.068;2022-07-05T10:55:51;31.60;97.70
39881;DHT22;25554;44.954;10.068;2022-07-05T11:00:46;31.20;96.60
39881;DHT22;25554;44.954;10.068;2022-07-05T11:03:55;32.00;96.30
39881;DHT22;25554;44.954;10.068;2022-07-05T11:11:33;32.40;95.60
39881;DHT22;25554;44.954;10.068;2022-07-05T11:14:00;32.40;95.60
39881;DHT22;25554;44.954;10.068;2022-07-05T11:16:30;32.00;95.60
39881;DHT22;25554;44.954;10.068;2022-07-05T11:19:09;31.70;95.60
39881;DHT22;25554;44.954;10.068;2022-07-05T11:21:39;32.80;96.90
39881;DHT22;25554;44.954;10.068;2022-07-05T11:24:22;32.40;95.70
39881;DHT22;25554;44.954;10.068;2022-07-05T11:26:51;32.10;94.60
39881;DHT22;25554;44.954;10.068;2022-07-05T11:32:14;32.70;95.60
39881;DHT22;25554;44.954;10.068;2022-07-05T11:34:42;32.10;94.80
39881;DHT22;25554;44.954;10.068;2022-07-05T11:37:21;32.70;95.60
39881;DHT22;25554;44.954;10.068;2022-07-05T11:42:49;33.00;97.40
39881;DHT22;25554;44.954;10.068;2022-07-05T11:50:11;32.60;94.90
39881;DHT22;25554;44.954;10.068;2022-07-05T11:52:38;33.60;95.40
39881;DHT22;25554;44.954;10.068;2022-07-05T11:55:11;32.80;92.80
39881;DHT22;25554;44.954;10.068;2022-07-05T11:57:48;32.30;94.60
39881;DHT22;25554;44.954;10.068;2022-07-05T12:02:51;33.30;93.20
39881;DHT22;25554;44.954;10.068;2022-07-05T12:07:51;33.10;94.30
39881;DHT22;25554;44.954;10.068;2022-07-05T12:10:18;33.20;94.10
39881;DHT22;25554;44.954;10.068;2022-07-05T12:13:07;33.30;93.50
39881;DHT22;25554;44.954;10.068;2022-07-05T12:15:35;33.40;93.50
39881;DHT22;25554;44.954;10.068;2022-07-05T12:18:03;33.40;92.90
39881;DHT22;25554;44.954;10.068;2022-07-05T12:20:32;33.40;93.10
39881;DHT22;25554;44.954;10.068;2022-07-05T12:25:27;33.50;93.30
39881;DHT22;25554;44.954;10.068;2022-07-05T12:27:55;33.40;92.50
39881;DHT22;25554;44.954;10.068;2022-07-05T12:30:35;33.60;92.60
39881;DHT22;25554;44.954;10.068;2022-07-05T12:40:49;33.20;95.70
39881;DHT22;25554;44.954;10.068;2022-07-05T12:50:59;33.80;90.80
39881;DHT22;25554;44.954;10.068;2022-07-05T12:53:27;33.90;91.00
39881;DHT22;25554;44.954;10.068;2022-07-05T12:56:13;33.90;91.60
39881;DHT22;25554;44.954;10.068;2022-07-05T12:59:00;33.60;91.30
39881;DHT22;25554;44.954;10.068;2022-07-05T13:01:29;33.80;90.70
39881;DHT22;25554;44.954;10.068;2022-07-05T13:04:03;33.80;91.00
39881;DHT22;25554;44.954;10.068;2022-07-05T13:09:10;34.20;90.70
39881;DHT22;25554;44.954;10.068;2022-07-05T13:11:37;34.90;92.60
39881;DHT22;25554;44.954;10.068;2022-07-05T13:14:03;34.30;90.90
39881;DHT22;25554;44.954;10.068;2022-07-05T13:19:07;34.50;90.30
39881;DHT22;25554;44.954;10.068;2022-07-05T13:26:27;34.30;90.50
39881;DHT22;25554;44.954;10.068;2022-07-05T13:31:20;34.70;91.20
39881;DHT22;25554;44.954;10.068;2022-07-05T13:41:06;34.50;90.20
39881;DHT22;25554;44.954;10.068;2022-07-05T13:53:18;34.40;88.60
39881;DHT22;25554;44.954;10.068;2022-07-05T14:03:05;35.10;87.60
39881;DHT22;25554;44.954;10.068;2022-07-05T14:05:32;35.60;89.30
39881;DHT22;25554;44.954;10.068;2022-07-05T14:07:58;36.00;90.30
39881;DHT22;25554;44.954;10.068;2022-07-05T14:12:51;36.30;90.40
39881;DHT22;25554;44.954;10.068;2022-07-05T14:25:06;36.30;90.20
39881;DHT22;25554;44.954;10.068;2022-07-05T14:27:32;35.10;87.10
39881;DHT22;25554;44.954;10.068;2022-07-05T14:47:34;36.40;88.40
39881;DHT22;25554;44.954;10.068;2022-07-05T15:04:42;35.90;84.90
39881;DHT22;25554;44.954;10.068;2022-07-05T15:12:02;35.40;82.30
39881;DHT22;25554;44.954;10.068;2022-07-05T15:16:55;36.00;83.50
39881;DHT22;25554;44.954;10.068;2022-07-05T15:19:22;36.00;82.60
39881;DHT22;25554;44.954;10.068;2022-07-05T15:21:49;36.10;83.00
39881;DHT22;25554;44.954;10.068;2022-07-05T15:24:16;36.10;82.10
39881;DHT22;25554;44.954;10.068;2022-07-05T15:39:02;36.20;83.30
39881;DHT22;25554;44.954;10.068;2022-07-05T15:41:30;36.00;84.20
39881;DHT22;25554;44.954;10.068;2022-07-05T15:46:39;36.20;82.20
39881;DHT22;25554;44.954;10.068;2022-07-05T16:09:11;36.10;81.90
39881;DHT22;25554;44.954;10.068;2022-07-05T16:29:33;36.80;88.10
39881;DHT22;25554;44.954;10.068;2022-07-05T16:34:25;35.70;84.70
39881;DHT22;25554;44.954;10.068;2022-07-05T16:49:06;35.70;81.30
39881;DHT22;25554;44.954;10.068;2022-07-05T16:58:53;36.10;80.30
39881;DHT22;25554;44.954;10.068;2022-07-05T17:03:48;35.90;80.60
39881;DHT22;25554;44.954;10.068;2022-07-05T17:08:44;36.10;86.70
39881;DHT22;25554;44.954;10.068;2022-07-05T17:11:12;35.20;81.10
39881;DHT22;25554;44.954;10.068;2022-07-05T17:13:44;35.00;81.60
39881;DHT22;25554;44.954;10.068;2022-07-05T17:16:11;34.80;82.30
39881;DHT22;25554;44.954;10.068;2022-07-05T17:18:39;34.70;82.80
39881;DHT22;25554;44.954;10.068;2022-07-05T17:21:07;35.20;82.30
39881;DHT22;25554;44.954;10.068;2022-07-05T17:23:36;34.40;82.20
39881;DHT22;25554;44.954;10.068;2022-07-05T17:26:04;34.20;82.20
39881;DHT22;25554;44.954;10.068;2022-07-05T17:30:57;34.10;93.20
39881;DHT22;25554;44.954;10.068;2022-07-05T17:38:18;33.60;83.40
39881;DHT22;25554;44.954;10.068;2022-07-05T17:48:04;33.80;84.70
39881;DHT22;25554;44.954;10.068;2022-07-05T18:05:16;32.60;86.70
39881;DHT22;25554;44.954;10.068;2022-07-05T18:12:46;32.20;88.40
39881;DHT22;25554;44.954;10.068;2022-07-05T18:29:58;31.40;90.60
39881;DHT22;25554;44.954;10.068;2022-07-05T18:52:03;30.70;92.10
39881;DHT22;25554;44.954;10.068;2022-07-05T19:24:50;29.40;95.10
39881;DHT22;25554;44.954;10.068;2022-07-05T19:34:37;29.10;95.60
39881;DHT22;25554;44.954;10.068;2022-07-05T20:04:04;28.40;97.20
39881;DHT22;25554;44.954;10.068;2022-07-05T20:09:04;28.40;97.50
39881;DHT22;25554;44.954;10.068;2022-07-05T20:28:42;27.60;99.90
39881;DHT22;25554;44.954;10.068;2022-07-05T21:15:08;27.00;99.90
39881;DHT22;25554;44.954;10.068;2022-07-05T21:17:38;26.90;99.90
39881;DHT22;25554;44.954;10.068;2022-07-05T21:20:06;26.70;99.90
39881;DHT22;25554;44.954;10.068;2022-07-05T23:55:04;24.10;99.90
